sensor_id;sensor_type;location;lat;lon;timestamp;P1;durP1;ratioP1;P2;durP2;ratioP2
51602;SDS011;37954;51.980;5.850;2023-05-10T00:00:13;19.02;;;12.20;;
51602;SDS011;37954;51.980;5.850;2023-05-10T00:04:26;17.30;;;12.40;;
51602;SDS011;37954;51.980;5.850;2023-05-10T00:08:38;21.83;;;13.30;;
51602;SDS011;37954;51.980;5.850;2023-05-10T00:12:50;19.45;;;13.05;;
51602;SDS011;37954;51.980;5.850;2023-05-10T00:17:01;20.48;;;13.85;;
51602;SDS011;37954;51.980;5.850;2023-05-10T00:21:13;20.35;;;13.48;;
51602;SDS011;37954;51.980;5.850;2023-05-10T00:25:24;26.15;;;16.67;;
51602;SDS011;37954;51.980;5.850;2023-05-10T00:29:36;25.20;;;17.33;;
51602;SDS011;37954;51.980;5.850;2023-05-10T00:33:48;26.25;;;17.58;;
51602;SDS011;37954;51.980;5.850;2023-05-10T00:37:59;27.65;;;19.00;;
51602;SDS011;37954;51.980;5.850;2023-05-10T00:42:11;30.85;;;17.65;;
51602;SDS011;37954;51.980;5.850;2023-05-10T00:46:22;27.40;;;17.95;;
51602;SDS011;37954;51.980;5.850;2023-05-10T00:50:34;27.13;;;18.15;;
51602;SDS011;37954;51.980;5.850;2023-05-10T00:54:46;34.38;;;19.67;;
51602;SDS011;37954;51.980;5.850;2023-05-10T00:58:58;30.25;;;18.75;;
51602;SDS011;37954;51.980;5.850;2023-05-10T01:03:10;30.38;;;19.95;;
51602;SDS011;37954;51.980;5.850;2023-05-10T01:07:22;30.95;;;20.23;;
51602;SDS011;37954;51.980;5.850;2023-05-10T01:11:34;28.58;;;19.38;;
51602;SDS011;37954;51.980;5.850;2023-05-10T01:15:47;31.67;;;19.58;;
51602;SDS011;37954;51.980;5.850;2023-05-10T01:19:59;29.45;;;18.15;;
51602;SDS011;37954;51.980;5.850;2023-05-10T01:33:39;27.55;;;18.23;;
51602;SDS011;37954;51.980;5.850;2023-05-10T01:38:24;34.22;;;19.45;;
51602;SDS011;37954;51.980;5.850;2023-05-10T01:43:00;29.73;;;18.73;;
51602;SDS011;37954;51.980;5.850;2023-05-10T01:47:17;28.40;;;18.60;;
51602;SDS011;37954;51.980;5.850;2023-05-10T01:51:48;30.60;;;19.17;;
51602;SDS011;37954;51.980;5.850;2023-05-10T01:56:05;34.78;;;20.02;;
51602;SDS011;37954;51.980;5.850;2023-05-10T02:00:19;32.60;;;19.10;;
51602;SDS011;37954;51.980;5.850;2023-05-10T02:04:35;36.90;;;21.85;;
51602;SDS011;37954;51.980;5.850;2023-05-10T02:08:49;51.03;;;28.58;;
51602;SDS011;37954;51.980;5.850;2023-05-10T02:13:03;32.47;;;18.52;;
51602;SDS011;37954;51.980;5.850;2023-05-10T02:17:18;34.13;;;18.13;;
51602;SDS011;37954;51.980;5.850;2023-05-10T02:21:30;27.77;;;16.77;;
51602;SDS011;37954;51.980;5.850;2023-05-10T02:25:44;27.33;;;17.50;;
51602;SDS011;37954;51.980;5.850;2023-05-10T02:29:57;31.00;;;18.05;;
51602;SDS011;37954;51.980;5.850;2023-05-10T02:34:10;32.63;;;18.50;;
51602;SDS011;37954;51.980;5.850;2023-05-10T02:38:22;33.90;;;18.88;;
51602;SDS011;37954;51.980;5.850;2023-05-10T02:42:36;31.67;;;18.27;;
51602;SDS011;37954;51.980;5.850;2023-05-10T02:46:48;32.72;;;19.25;;
51602;SDS011;37954;51.980;5.850;2023-05-10T02:51:02;35.55;;;20.27;;
51602;SDS011;37954;51.980;5.850;2023-05-10T02:55:19;31.50;;;19.40;;
51602;SDS011;37954;51.980;5.850;2023-05-10T02:59:36;37.30;;;20.05;;
51602;SDS011;37954;51.980;5.850;2023-05-10T03:03:48;35.65;;;20.38;;
51602;SDS011;37954;51.980;5.850;2023-05-10T03:07:59;32.60;;;19.83;;
51602;SDS011;37954;51.980;5.850;2023-05-10T03:12:39;40.30;;;21.25;;
51602;SDS011;37954;51.980;5.850;2023-05-10T03:17:22;33.78;;;20.35;;
51602;SDS011;37954;51.980;5.850;2023-05-10T03:21:37;41.00;;;20.73;;
51602;SDS011;37954;51.980;5.850;2023-05-10T03:25:53;35.10;;;21.17;;
51602;SDS011;37954;51.980;5.850;2023-05-10T03:30:07;31.88;;;19.38;;
51602;SDS011;37954;51.980;5.850;2023-05-10T03:34:25;35.97;;;20.92;;
51602;SDS011;37954;51.980;5.850;2023-05-10T03:38:37;41.83;;;23.10;;
51602;SDS011;37954;51.980;5.850;2023-05-10T03:42:49;34.33;;;21.35;;
51602;SDS011;37954;51.980;5.850;2023-05-10T03:47:01;36.00;;;22.00;;
51602;SDS011;37954;51.980;5.850;2023-05-10T03:51:13;38.35;;;22.80;;
51602;SDS011;37954;51.980;5.850;2023-05-10T03:55:24;36.75;;;22.05;;
51602;SDS011;37954;51.980;5.850;2023-05-10T03:59:36;33.00;;;20.35;;
51602;SDS011;37954;51.980;5.850;2023-05-10T04:03:47;35.72;;;20.23;;
51602;SDS011;37954;51.980;5.850;2023-05-10T04:07:59;34.22;;;18.60;;
51602;SDS011;37954;51.980;5.850;2023-05-10T04:12:11;31.42;;;19.45;;
51602;SDS011;37954;51.980;5.850;2023-05-10T04:16:23;30.70;;;17.60;;
51602;SDS011;37954;51.980;5.850;2023-05-10T04:20:34;35.67;;;18.63;;
51602;SDS011;37954;51.980;5.850;2023-05-10T04:24:46;28.75;;;17.92;;
51602;SDS011;37954;51.980;5.850;2023-05-10T04:28:57;35.88;;;18.02;;
51602;SDS011;37954;51.980;5.850;2023-05-10T04:33:09;34.33;;;19.63;;
51602;SDS011;37954;51.980;5.850;2023-05-10T04:37:20;32.15;;;18.92;;
51602;SDS011;37954;51.980;5.850;2023-05-10T04:41:34;37.67;;;19.67;;
51602;SDS011;37954;51.980;5.850;2023-05-10T04:45:45;34.30;;;19.40;;
51602;SDS011;37954;51.980;5.850;2023-05-10T04:49:57;30.02;;;18.25;;
51602;SDS011;37954;51.980;5.850;2023-05-10T04:54:09;35.42;;;19.58;;
51602;SDS011;37954;51.980;5.850;2023-05-10T04:58:21;32.63;;;17.92;;
51602;SDS011;37954;51.980;5.850;2023-05-10T05:02:33;36.22;;;18.33;;
51602;SDS011;37954;51.980;5.850;2023-05-10T05:06:44;34.15;;;18.52;;
51602;SDS011;37954;51.980;5.850;2023-05-10T05:10:56;32.28;;;19.50;;
51602;SDS011;37954;51.980;5.850;2023-05-10T05:15:07;32.78;;;18.67;;
51602;SDS011;37954;51.980;5.850;2023-05-10T05:19:20;33.75;;;17.70;;
51602;SDS011;37954;51.980;5.850;2023-05-10T05:23:32;33.42;;;17.98;;
51602;SDS011;37954;51.980;5.850;2023-05-10T05:27:44;25.00;;;16.17;;
51602;SDS011;37954;51.980;5.850;2023-05-10T05:31:55;34.08;;;17.52;;
51602;SDS011;37954;51.980;5.850;2023-05-10T05:36:07;30.52;;;17.70;;
51602;SDS011;37954;51.980;5.850;2023-05-10T05:40:19;32.88;;;17.67;;
51602;SDS011;37954;51.980;5.850;2023-05-10T05:44:31;29.88;;;17.33;;
51602;SDS011;37954;51.980;5.850;2023-05-10T05:48:43;32.45;;;17.52;;
51602;SDS011;37954;51.980;5.850;2023-05-10T05:52:54;28.38;;;17.48;;
51602;SDS011;37954;51.980;5.850;2023-05-10T05:57:06;39.88;;;17.90;;
51602;SDS011;37954;51.980;5.850;2023-05-10T06:01:18;34.95;;;17.90;;
51602;SDS011;37954;51.980;5.850;2023-05-10T06:05:30;33.03;;;17.65;;
51602;SDS011;37954;51.980;5.850;2023-05-10T06:09:41;34.88;;;19.52;;
51602;SDS011;37954;51.980;5.850;2023-05-10T06:13:53;30.60;;;18.38;;
51602;SDS011;37954;51.980;5.850;2023-05-10T06:18:05;34.00;;;18.30;;
51602;SDS011;37954;51.980;5.850;2023-05-10T06:22:17;32.50;;;19.05;;
51602;SDS011;37954;51.980;5.850;2023-05-10T06:26:29;34.17;;;18.50;;
51602;SDS011;37954;51.980;5.850;2023-05-10T06:30:40;34.92;;;18.88;;
51602;SDS011;37954;51.980;5.850;2023-05-10T06:34:52;37.28;;;19.00;;
51602;SDS011;37954;51.980;5.850;2023-05-10T06:39:03;31.08;;;18.23;;
51602;SDS011;37954;51.980;5.850;2023-05-10T06:43:15;31.77;;;17.92;;
51602;SDS011;37954;51.980;5.850;2023-05-10T06:47:27;34.50;;;18.02;;
51602;SDS011;37954;51.980;5.850;2023-05-10T06:51:39;32.72;;;18.17;;
51602;SDS011;37954;51.980;5.850;2023-05-10T06:55:57;39.60;;;19.25;;
51602;SDS011;37954;51.980;5.850;2023-05-10T07:00:09;35.13;;;19.33;;
51602;SDS011;37954;51.980;5.850;2023-05-10T07:04:21;43.13;;;19.70;;
51602;SDS011;37954;51.980;5.850;2023-05-10T07:08:33;28.88;;;17.48;;
51602;SDS011;37954;51.980;5.850;2023-05-10T07:12:45;32.92;;;18.77;;
51602;SDS011;37954;51.980;5.850;2023-05-10T07:16:57;35.97;;;19.60;;
51602;SDS011;37954;51.980;5.850;2023-05-10T07:21:09;35.40;;;19.52;;
51602;SDS011;37954;51.980;5.850;2023-05-10T07:25:21;34.28;;;19.52;;
51602;SDS011;37954;51.980;5.850;2023-05-10T07:29:32;41.85;;;19.88;;
51602;SDS011;37954;51.980;5.850;2023-05-10T07:33:44;36.63;;;20.52;;
51602;SDS011;37954;51.980;5.850;2023-05-10T07:37:55;34.33;;;19.00;;
51602;SDS011;37954;51.980;5.850;2023-05-10T07:42:07;31.13;;;17.83;;
51602;SDS011;37954;51.980;5.850;2023-05-10T07:46:19;28.73;;;17.05;;
51602;SDS011;37954;51.980;5.850;2023-05-10T07:50:31;30.20;;;16.95;;
51602;SDS011;37954;51.980;5.850;2023-05-10T07:54:43;33.42;;;19.02;;
51602;SDS011;37954;51.980;5.850;2023-05-10T07:58:55;28.92;;;16.58;;
51602;SDS011;37954;51.980;5.850;2023-05-10T08:03:07;28.52;;;17.25;;
51602;SDS011;37954;51.980;5.850;2023-05-10T08:07:19;38.58;;;18.13;;
51602;SDS011;37954;51.980;5.850;2023-05-10T08:11:31;28.30;;;16.88;;
51602;SDS011;37954;51.980;5.850;2023-05-10T08:15:45;33.58;;;18.08;;
51602;SDS011;37954;51.980;5.850;2023-05-10T08:19:57;30.00;;;17.15;;
51602;SDS011;37954;51.980;5.850;2023-05-10T08:24:09;29.25;;;15.98;;
51602;SDS011;37954;51.980;5.850;2023-05-10T08:28:20;31.48;;;15.82;;
51602;SDS011;37954;51.980;5.850;2023-05-10T08:32:32;24.00;;;16.23;;
51602;SDS011;37954;51.980;5.850;2023-05-10T08:36:44;22.75;;;12.95;;
51602;SDS011;37954;51.980;5.850;2023-05-10T08:40:55;20.15;;;12.50;;
51602;SDS011;37954;51.980;5.850;2023-05-10T08:45:08;20.17;;;12.07;;
51602;SDS011;37954;51.980;5.850;2023-05-10T08:49:21;18.48;;;11.70;;
51602;SDS011;37954;51.980;5.850;2023-05-10T08:53:35;19.23;;;11.32;;
51602;SDS011;37954;51.980;5.850;2023-05-10T08:57:50;15.25;;;9.82;;
51602;SDS011;37954;51.980;5.850;2023-05-10T09:02:02;18.17;;;10.23;;
51602;SDS011;37954;51.980;5.850;2023-05-10T09:06:16;11.10;;;8.30;;
51602;SDS011;37954;51.980;5.850;2023-05-10T09:10:28;12.00;;;6.85;;
51602;SDS011;37954;51.980;5.850;2023-05-10T09:14:41;8.70;;;6.18;;
51602;SDS011;37954;51.980;5.850;2023-05-10T09:18:55;8.57;;;5.78;;
51602;SDS011;37954;51.980;5.850;2023-05-10T09:23:07;7.20;;;5.50;;
51602;SDS011;37954;51.980;5.850;2023-05-10T09:27:26;10.05;;;5.47;;
51602;SDS011;37954;51.980;5.850;2023-05-10T09:36:05;7.13;;;5.28;;
51602;SDS011;37954;51.980;5.850;2023-05-10T09:40:19;6.93;;;5.30;;
51602;SDS011;37954;51.980;5.850;2023-05-10T09:44:33;8.02;;;5.35;;
51602;SDS011;37954;51.980;5.850;2023-05-10T09:48:45;8.75;;;5.22;;
51602;SDS011;37954;51.980;5.850;2023-05-10T09:52:59;8.13;;;4.75;;
51602;SDS011;37954;51.980;5.850;2023-05-10T09:57:19;6.18;;;4.82;;
51602;SDS011;37954;51.980;5.850;2023-05-10T10:01:33;7.30;;;5.07;;
51602;SDS011;37954;51.980;5.850;2023-05-10T10:05:46;7.30;;;4.82;;
51602;SDS011;37954;51.980;5.850;2023-05-10T10:09:59;6.57;;;5.15;;
51602;SDS011;37954;51.980;5.850;2023-05-10T10:14:11;7.65;;;5.32;;
51602;SDS011;37954;51.980;5.850;2023-05-10T10:18:23;9.77;;;5.78;;
51602;SDS011;37954;51.980;5.850;2023-05-10T10:22:38;9.70;;;6.13;;
51602;SDS011;37954;51.980;5.850;2023-05-10T10:26:50;8.35;;;5.80;;
51602;SDS011;37954;51.980;5.850;2023-05-10T10:31:23;7.97;;;5.88;;
51602;SDS011;37954;51.980;5.850;2023-05-10T10:35:44;9.90;;;5.90;;
51602;SDS011;37954;51.980;5.850;2023-05-10T10:39:57;8.43;;;5.90;;
51602;SDS011;37954;51.980;5.850;2023-05-10T10:48:50;7.32;;;5.88;;
51602;SDS011;37954;51.980;5.850;2023-05-10T10:53:19;9.50;;;6.55;;
51602;SDS011;37954;51.980;5.850;2023-05-10T10:57:32;8.15;;;5.97;;
51602;SDS011;37954;51.980;5.850;2023-05-10T11:07:15;9.95;;;6.38;;
51602;SDS011;37954;51.980;5.850;2023-05-10T11:11:28;8.82;;;5.97;;
51602;SDS011;37954;51.980;5.850;2023-05-10T11:15:47;7.13;;;5.22;;
51602;SDS011;37954;51.980;5.850;2023-05-10T11:24:21;6.95;;;4.95;;
51602;SDS011;37954;51.980;5.850;2023-05-10T11:28:34;8.18;;;5.38;;
51602;SDS011;37954;51.980;5.850;2023-05-10T11:32:46;6.28;;;4.72;;
51602;SDS011;37954;51.980;5.850;2023-05-10T11:36:57;6.18;;;4.70;;
51602;SDS011;37954;51.980;5.850;2023-05-10T11:41:12;7.82;;;4.95;;
51602;SDS011;37954;51.980;5.850;2023-05-10T11:45:24;5.47;;;4.65;;
51602;SDS011;37954;51.980;5.850;2023-05-10T11:49:37;5.47;;;4.20;;
51602;SDS011;37954;51.980;5.850;2023-05-10T11:53:49;5.90;;;5.10;;
51602;SDS011;37954;51.980;5.850;2023-05-10T11:58:02;6.30;;;4.55;;
51602;SDS011;37954;51.980;5.850;2023-05-10T12:02:14;6.60;;;5.07;;
51602;SDS011;37954;51.980;5.850;2023-05-10T12:06:30;7.03;;;4.60;;
51602;SDS011;37954;51.980;5.850;2023-05-10T12:10:43;6.60;;;4.90;;
51602;SDS011;37954;51.980;5.850;2023-05-10T12:14:55;5.82;;;4.38;;
51602;SDS011;37954;51.980;5.850;2023-05-10T12:19:06;7.45;;;4.47;;
51602;SDS011;37954;51.980;5.850;2023-05-10T12:23:18;4.40;;;3.83;;
51602;SDS011;37954;51.980;5.850;2023-05-10T12:27:31;5.13;;;3.78;;
51602;SDS011;37954;51.980;5.850;2023-05-10T12:31:53;7.63;;;3.40;;
51602;SDS011;37954;51.980;5.850;2023-05-10T12:36:13;4.50;;;3.83;;
51602;SDS011;37954;51.980;5.850;2023-05-10T12:40:26;5.10;;;3.90;;
51602;SDS011;37954;51.980;5.850;2023-05-10T12:44:38;5.38;;;3.85;;
51602;SDS011;37954;51.980;5.850;2023-05-10T12:48:50;4.82;;;3.67;;
51602;SDS011;37954;51.980;5.850;2023-05-10T12:53:19;5.03;;;3.88;;
51602;SDS011;37954;51.980;5.850;2023-05-10T12:57:31;3.22;;;2.92;;
51602;SDS011;37954;51.980;5.850;2023-05-10T13:01:42;3.50;;;2.95;;
51602;SDS011;37954;51.980;5.850;2023-05-10T13:05:54;4.97;;;3.45;;
51602;SDS011;37954;51.980;5.850;2023-05-10T13:10:06;4.00;;;3.40;;
51602;SDS011;37954;51.980;5.850;2023-05-10T13:14:18;4.53;;;3.33;;
51602;SDS011;37954;51.980;5.850;2023-05-10T13:18:31;5.50;;;3.85;;
51602;SDS011;37954;51.980;5.850;2023-05-10T13:22:43;5.93;;;3.45;;
51602;SDS011;37954;51.980;5.850;2023-05-10T13:26:55;4.05;;;3.33;;
51602;SDS011;37954;51.980;5.850;2023-05-10T13:31:07;10.15;;;3.25;;
51602;SDS011;37954;51.980;5.850;2023-05-10T13:35:19;3.92;;;2.97;;
51602;SDS011;37954;51.980;5.850;2023-05-10T13:39:31;8.05;;;4.63;;
51602;SDS011;37954;51.980;5.850;2023-05-10T13:43:45;7.57;;;5.00;;
51602;SDS011;37954;51.980;5.850;2023-05-10T13:47:57;5.20;;;4.68;;
51602;SDS011;37954;51.980;5.850;2023-05-10T13:52:09;6.55;;;5.85;;
51602;SDS011;37954;51.980;5.850;2023-05-10T13:56:21;6.25;;;5.45;;
51602;SDS011;37954;51.980;5.850;2023-05-10T14:00:33;8.50;;;5.07;;
51602;SDS011;37954;51.980;5.850;2023-05-10T14:04:44;6.05;;;5.07;;
51602;SDS011;37954;51.980;5.850;2023-05-10T14:08:57;5.68;;;4.90;;
51602;SDS011;37954;51.980;5.850;2023-05-10T14:13:08;5.57;;;5.00;;
51602;SDS011;37954;51.980;5.850;2023-05-10T14:17:20;5.70;;;5.13;;
51602;SDS011;37954;51.980;5.850;2023-05-10T14:21:33;5.20;;;4.47;;
51602;SDS011;37954;51.980;5.850;2023-05-10T14:25:45;7.50;;;4.88;;
51602;SDS011;37954;51.980;5.850;2023-05-10T14:29:57;4.97;;;4.47;;
51602;SDS011;37954;51.980;5.850;2023-05-10T14:34:08;4.88;;;3.90;;
51602;SDS011;37954;51.980;5.850;2023-05-10T14:38:20;5.53;;;3.10;;
51602;SDS011;37954;51.980;5.850;2023-05-10T14:42:32;4.13;;;3.08;;
51602;SDS011;37954;51.980;5.850;2023-05-10T14:51:22;4.57;;;2.90;;
51602;SDS011;37954;51.980;5.850;2023-05-10T14:55:34;3.38;;;3.03;;
51602;SDS011;37954;51.980;5.850;2023-05-10T14:59:46;4.38;;;3.03;;
51602;SDS011;37954;51.980;5.850;2023-05-10T15:04:00;3.08;;;2.33;;
51602;SDS011;37954;51.980;5.850;2023-05-10T15:08:12;3.47;;;2.28;;
51602;SDS011;37954;51.980;5.850;2023-05-10T15:12:25;2.22;;;1.60;;
51602;SDS011;37954;51.980;5.850;2023-05-10T15:16:36;2.17;;;1.98;;
51602;SDS011;37954;51.980;5.850;2023-05-10T15:20:48;2.55;;;2.28;;
51602;SDS011;37954;51.980;5.850;2023-05-10T15:25:00;2.42;;;1.50;;
51602;SDS011;37954;51.980;5.850;2023-05-10T15:29:12;2.10;;;1.30;;
51602;SDS011;37954;51.980;5.850;2023-05-10T15:33:30;3.70;;;1.70;;
51602;SDS011;37954;51.980;5.850;2023-05-10T15:37:42;1.40;;;1.23;;
51602;SDS011;37954;51.980;5.850;2023-05-10T15:41:54;2.05;;;1.58;;
51602;SDS011;37954;51.980;5.850;2023-05-10T15:46:05;1.58;;;1.48;;
51602;SDS011;37954;51.980;5.850;2023-05-10T15:50:17;2.17;;;1.50;;
51602;SDS011;37954;51.980;5.850;2023-05-10T15:54:29;1.55;;;1.42;;
51602;SDS011;37954;51.980;5.850;2023-05-10T15:58:41;1.42;;;1.30;;
51602;SDS011;37954;51.980;5.850;2023-05-10T16:02:54;1.50;;;1.40;;
51602;SDS011;37954;51.980;5.850;2023-05-10T16:07:05;4.05;;;1.98;;
51602;SDS011;37954;51.980;5.850;2023-05-10T16:11:17;1.70;;;1.30;;
51602;SDS011;37954;51.980;5.850;2023-05-10T16:15:29;1.02;;;1.02;;
51602;SDS011;37954;51.980;5.850;2023-05-10T16:19:40;1.30;;;1.20;;
51602;SDS011;37954;51.980;5.850;2023-05-10T16:23:52;1.23;;;1.00;;
51602;SDS011;37954;51.980;5.850;2023-05-10T16:28:06;1.73;;;1.23;;
51602;SDS011;37954;51.980;5.850;2023-05-10T16:32:18;1.48;;;1.33;;
51602;SDS011;37954;51.980;5.850;2023-05-10T16:36:29;1.85;;;1.40;;
51602;SDS011;37954;51.980;5.850;2023-05-10T16:40:41;2.85;;;1.88;;
51602;SDS011;37954;51.980;5.850;2023-05-10T16:44:53;1.73;;;1.63;;
51602;SDS011;37954;51.980;5.850;2023-05-10T16:49:05;2.75;;;1.70;;
51602;SDS011;37954;51.980;5.850;2023-05-10T16:53:17;1.92;;;1.55;;
51602;SDS011;37954;51.980;5.850;2023-05-10T16:57:29;1.98;;;1.38;;
51602;SDS011;37954;51.980;5.850;2023-05-10T17:01:41;1.20;;;1.10;;
51602;SDS011;37954;51.980;5.850;2023-05-10T17:05:53;1.33;;;1.13;;
51602;SDS011;37954;51.980;5.850;2023-05-10T17:10:05;2.00;;;1.33;;
51602;SDS011;37954;51.980;5.850;2023-05-10T17:14:17;2.45;;;1.75;;
51602;SDS011;37954;51.980;5.850;2023-05-10T17:18:28;2.47;;;1.83;;
51602;SDS011;37954;51.980;5.850;2023-05-10T17:22:40;3.10;;;2.28;;
51602;SDS011;37954;51.980;5.850;2023-05-10T17:26:52;2.33;;;2.08;;
51602;SDS011;37954;51.980;5.850;2023-05-10T17:31:03;2.00;;;1.80;;
51602;SDS011;37954;51.980;5.850;2023-05-10T17:35:15;1.92;;;1.83;;
51602;SDS011;37954;51.980;5.850;2023-05-10T17:39:27;4.78;;;2.20;;
51602;SDS011;37954;51.980;5.850;2023-05-10T17:43:39;3.17;;;2.38;;
51602;SDS011;37954;51.980;5.850;2023-05-10T17:47:51;3.80;;;2.10;;
51602;SDS011;37954;51.980;5.850;2023-05-10T17:52:02;2.22;;;1.85;;
51602;SDS011;37954;51.980;5.850;2023-05-10T17:56:14;3.35;;;2.15;;
51602;SDS011;37954;51.980;5.850;2023-05-10T18:00:26;5.63;;;2.20;;
51602;SDS011;37954;51.980;5.850;2023-05-10T18:04:38;2.78;;;2.13;;
51602;SDS011;37954;51.980;5.850;2023-05-10T18:08:51;3.08;;;2.78;;
51602;SDS011;37954;51.980;5.850;2023-05-10T18:13:02;3.65;;;2.90;;
51602;SDS011;37954;51.980;5.850;2023-05-10T18:17:18;6.75;;;3.42;;
51602;SDS011;37954;51.980;5.850;2023-05-10T18:21:30;6.20;;;2.92;;
51602;SDS011;37954;51.980;5.850;2023-05-10T18:25:42;4.50;;;3.28;;
51602;SDS011;37954;51.980;5.850;2023-05-10T18:29:54;4.93;;;3.50;;
51602;SDS011;37954;51.980;5.850;2023-05-10T18:34:06;6.25;;;3.45;;
51602;SDS011;37954;51.980;5.850;2023-05-10T18:38:18;4.70;;;3.20;;
51602;SDS011;37954;51.980;5.850;2023-05-10T18:42:29;4.90;;;3.38;;
51602;SDS011;37954;51.980;5.850;2023-05-10T18:46:41;5.10;;;3.85;;
51602;SDS011;37954;51.980;5.850;2023-05-10T18:50:53;5.30;;;3.95;;
51602;SDS011;37954;51.980;5.850;2023-05-10T18:55:05;5.75;;;4.22;;
51602;SDS011;37954;51.980;5.850;2023-05-10T18:59:17;5.70;;;4.43;;
51602;SDS011;37954;51.980;5.850;2023-05-10T19:03:29;6.05;;;4.35;;
51602;SDS011;37954;51.980;5.850;2023-05-10T19:07:40;6.75;;;4.30;;
51602;SDS011;37954;51.980;5.850;2023-05-10T19:11:54;8.80;;;4.43;;
51602;SDS011;37954;51.980;5.850;2023-05-10T19:16:10;8.60;;;4.70;;
51602;SDS011;37954;51.980;5.850;2023-05-10T19:20:23;7.50;;;4.45;;
51602;SDS011;37954;51.980;5.850;2023-05-10T19:24:35;9.60;;;4.65;;
51602;SDS011;37954;51.980;5.850;2023-05-10T19:28:49;6.70;;;4.80;;
51602;SDS011;37954;51.980;5.850;2023-05-10T19:33:01;6.05;;;4.30;;
51602;SDS011;37954;51.980;5.850;2023-05-10T19:37:15;7.75;;;4.70;;
51602;SDS011;37954;51.980;5.850;2023-05-10T19:41:26;6.75;;;4.60;;
51602;SDS011;37954;51.980;5.850;2023-05-10T19:45:38;6.88;;;4.63;;
51602;SDS011;37954;51.980;5.850;2023-05-10T19:49:50;6.85;;;4.70;;
51602;SDS011;37954;51.980;5.850;2023-05-10T19:54:02;5.88;;;4.30;;
51602;SDS011;37954;51.980;5.850;2023-05-10T19:58:14;5.88;;;5.03;;
51602;SDS011;37954;51.980;5.850;2023-05-10T20:02:25;7.82;;;5.18;;
51602;SDS011;37954;51.980;5.850;2023-05-10T20:06:37;6.50;;;4.80;;
51602;SDS011;37954;51.980;5.850;2023-05-10T20:10:49;5.43;;;4.18;;
51602;SDS011;37954;51.980;5.850;2023-05-10T20:15:01;7.40;;;4.88;;
51602;SDS011;37954;51.980;5.850;2023-05-10T20:19:13;8.23;;;5.78;;
51602;SDS011;37954;51.980;5.850;2023-05-10T20:23:26;6.93;;;5.50;;
51602;SDS011;37954;51.980;5.850;2023-05-10T20:27:37;11.45;;;5.07;;
51602;SDS011;37954;51.980;5.850;2023-05-10T20:31:49;6.32;;;4.75;;
51602;SDS011;37954;51.980;5.850;2023-05-10T20:36:01;6.13;;;4.40;;
51602;SDS011;37954;51.980;5.850;2023-05-10T20:40:13;7.97;;;4.72;;
51602;SDS011;37954;51.980;5.850;2023-05-10T20:44:24;6.45;;;4.50;;
51602;SDS011;37954;51.980;5.850;2023-05-10T20:48:36;8.98;;;5.47;;
51602;SDS011;37954;51.980;5.850;2023-05-10T20:52:48;8.10;;;5.38;;
51602;SDS011;37954;51.980;5.850;2023-05-10T20:57:02;8.27;;;4.70;;
51602;SDS011;37954;51.980;5.850;2023-05-10T21:01:14;7.15;;;5.90;;
51602;SDS011;37954;51.980;5.850;2023-05-10T21:05:26;7.60;;;5.60;;
51602;SDS011;37954;51.980;5.850;2023-05-10T21:09:38;9.93;;;5.97;;
51602;SDS011;37954;51.980;5.850;2023-05-10T21:13:50;8.85;;;6.32;;
51602;SDS011;37954;51.980;5.850;2023-05-10T21:18:01;9.20;;;5.78;;
51602;SDS011;37954;51.980;5.850;2023-05-10T21:22:13;10.00;;;6.40;;
51602;SDS011;37954;51.980;5.850;2023-05-10T21:26:25;9.23;;;6.53;;
51602;SDS011;37954;51.980;5.850;2023-05-10T21:30:37;10.52;;;7.22;;
51602;SDS011;37954;51.980;5.850;2023-05-10T21:34:48;11.20;;;7.43;;
51602;SDS011;37954;51.980;5.850;2023-05-10T21:39:00;9.70;;;6.80;;
51602;SDS011;37954;51.980;5.850;2023-05-10T21:43:12;10.40;;;6.60;;
51602;SDS011;37954;51.980;5.850;2023-05-10T21:47:23;10.30;;;6.60;;
51602;SDS011;37954;51.980;5.850;2023-05-10T21:51:35;8.82;;;6.43;;
51602;SDS011;37954;51.980;5.850;2023-05-10T21:55:47;10.15;;;7.28;;
51602;SDS011;37954;51.980;5.850;2023-05-10T21:59:58;13.38;;;7.82;;
51602;SDS011;37954;51.980;5.850;2023-05-10T22:04:10;11.80;;;7.43;;
51602;SDS011;37954;51.980;5.850;2023-05-10T22:08:21;10.82;;;7.70;;
51602;SDS011;37954;51.980;5.850;2023-05-10T22:12:33;12.32;;;8.43;;
51602;SDS011;37954;51.980;5.850;2023-05-10T22:16:45;12.10;;;8.32;;
51602;SDS011;37954;51.980;5.850;2023-05-10T22:20:57;12.45;;;8.30;;
51602;SDS011;37954;51.980;5.850;2023-05-10T22:25:08;12.30;;;8.05;;
51602;SDS011;37954;51.980;5.850;2023-05-10T22:29:20;10.60;;;8.10;;
51602;SDS011;37954;51.980;5.850;2023-05-10T22:33:32;11.55;;;7.35;;
51602;SDS011;37954;51.980;5.850;2023-05-10T22:37:44;13.68;;;9.18;;
51602;SDS011;37954;51.980;5.850;2023-05-10T22:41:56;15.13;;;8.52;;
51602;SDS011;37954;51.980;5.850;2023-05-10T22:46:08;13.65;;;8.40;;
51602;SDS011;37954;51.980;5.850;2023-05-10T22:50:20;11.18;;;8.10;;
51602;SDS011;37954;51.980;5.850;2023-05-10T22:54:31;12.20;;;8.00;;
51602;SDS011;37954;51.980;5.850;2023-05-10T22:58:46;13.90;;;8.18;;
51602;SDS011;37954;51.980;5.850;2023-05-10T23:02:59;10.85;;;8.25;;
51602;SDS011;37954;51.980;5.850;2023-05-10T23:07:10;12.68;;;8.30;;
51602;SDS011;37954;51.980;5.850;2023-05-10T23:11:22;13.55;;;8.35;;
51602;SDS011;37954;51.980;5.850;2023-05-10T23:15:34;12.60;;;8.48;;
51602;SDS011;37954;51.980;5.850;2023-05-10T23:19:46;12.15;;;8.30;;
51602;SDS011;37954;51.980;5.850;2023-05-10T23:23:58;17.30;;;9.15;;
51602;SDS011;37954;51.980;5.850;2023-05-10T23:28:09;13.35;;;8.73;;
51602;SDS011;37954;51.980;5.850;2023-05-10T23:32:21;13.32;;;8.70;;
51602;SDS011;37954;51.980;5.850;2023-05-10T23:36:33;16.13;;;8.55;;
51602;SDS011;37954;51.980;5.850;2023-05-10T23:40:48;15.25;;;8.85;;
51602;SDS011;37954;51.980;5.850;2023-05-10T23:45:00;13.25;;;8.70;;
51602;SDS011;37954;51.980;5.850;2023-05-10T23:49:13;12.75;;;8.35;;
51602;SDS011;37954;51.980;5.850;2023-05-10T23:53:24;14.60;;;9.35;;
51602;SDS011;37954;51.980;5.850;2023-05-10T23:57:36;14.40;;;9.35;;
